Terminal Aerodrome Forecast
Issued by NWS Houston/Galveston, TX

Current Version | Previous Version | Text Only | Print | Product List | Glossary Off
Versions: 1 2 3 4 5 6 7 8 9 10 11 12 13 14 15 16 17 18 19 20 21 22 23 24 25 26 27 28 29 30 31 32 33 34 35 36 37 38

000
FTUS44 KHGX 020523
TAFCLL
TAF
KCLL 020523Z 0206/0306 15008KT P6SM SKC
      TEMPO 0208/0210 BKN017
     FM021000 15005KT P6SM BKN012
     FM021400 15008KT P6SM BKN024
      TEMPO 0216/0220 SCT040
     FM022000 16010KT P6SM VCTS SCT045CB
     FM030100 16007KT P6SM FEW050 SCT250=

USA.gov is the U.S. government's official web portal to all federal, state and local government web resources and services.